sensor_id;sensor_type;location;lat;lon;timestamp;P1;durP1;ratioP1;P2;durP2;ratioP2
28796;SDS011;24974;54.444;18.560;2023-11-25T00:00:30;6.15;;;2.50;;
28796;SDS011;24974;54.444;18.560;2023-11-25T00:03:01;5.57;;;2.22;;
28796;SDS011;24974;54.444;18.560;2023-11-25T00:05:32;8.57;;;2.80;;
28796;SDS011;24974;54.444;18.560;2023-11-25T00:08:03;6.50;;;2.80;;
28796;SDS011;24974;54.444;18.560;2023-11-25T00:10:34;5.32;;;2.45;;
28796;SDS011;24974;54.444;18.560;2023-11-25T00:13:05;5.20;;;2.40;;
28796;SDS011;24974;54.444;18.560;2023-11-25T00:15:37;6.03;;;2.13;;
28796;SDS011;24974;54.444;18.560;2023-11-25T00:18:09;7.63;;;2.70;;
28796;SDS011;24974;54.444;18.560;2023-11-25T00:20:40;4.88;;;2.22;;
28796;SDS011;24974;54.444;18.560;2023-11-25T00:23:11;7.28;;;2.15;;
28796;SDS011;24974;54.444;18.560;2023-11-25T00:25:42;7.45;;;2.40;;
28796;SDS011;24974;54.444;18.560;2023-11-25T00:28:13;4.25;;;1.83;;
28796;SDS011;24974;54.444;18.560;2023-11-25T00:30:44;5.85;;;2.10;;
28796;SDS011;24974;54.444;18.560;2023-11-25T00:33:15;4.35;;;1.80;;
28796;SDS011;24974;54.444;18.560;2023-11-25T00:35:46;3.60;;;1.98;;
28796;SDS011;24974;54.444;18.560;2023-11-25T00:38:18;6.32;;;2.00;;
28796;SDS011;24974;54.444;18.560;2023-11-25T00:40:49;5.75;;;1.77;;
28796;SDS011;24974;54.444;18.560;2023-11-25T00:43:20;4.47;;;1.50;;
28796;SDS011;24974;54.444;18.560;2023-11-25T00:45:52;8.25;;;2.42;;
28796;SDS011;24974;54.444;18.560;2023-11-25T00:48:23;3.53;;;1.42;;
28796;SDS011;24974;54.444;18.560;2023-11-25T00:50:54;3.03;;;1.48;;
28796;SDS011;24974;54.444;18.560;2023-11-25T00:53:25;5.25;;;1.50;;
28796;SDS011;24974;54.444;18.560;2023-11-25T00:55:56;3.80;;;1.80;;
28796;SDS011;24974;54.444;18.560;2023-11-25T00:58:27;2.70;;;1.50;;
28796;SDS011;24974;54.444;18.560;2023-11-25T01:00:58;2.65;;;1.65;;
28796;SDS011;24974;54.444;18.560;2023-11-25T01:03:29;2.88;;;1.52;;
28796;SDS011;24974;54.444;18.560;2023-11-25T01:06:05;2.53;;;1.42;;
28796;SDS011;24974;54.444;18.560;2023-11-25T01:08:37;3.15;;;1.42;;
28796;SDS011;24974;54.444;18.560;2023-11-25T01:11:08;3.08;;;1.77;;
28796;SDS011;24974;54.444;18.560;2023-11-25T01:13:39;4.85;;;2.03;;
28796;SDS011;24974;54.444;18.560;2023-11-25T01:16:16;4.38;;;2.30;;
28796;SDS011;24974;54.444;18.560;2023-11-25T01:18:48;6.07;;;2.00;;
28796;SDS011;24974;54.444;18.560;2023-11-25T01:21:19;3.35;;;1.85;;
28796;SDS011;24974;54.444;18.560;2023-11-25T01:23:50;4.30;;;2.00;;
28796;SDS011;24974;54.444;18.560;2023-11-25T01:26:20;3.38;;;1.70;;
28796;SDS011;24974;54.444;18.560;2023-11-25T01:28:52;3.22;;;1.75;;
28796;SDS011;24974;54.444;18.560;2023-11-25T01:31:23;5.20;;;2.03;;
28796;SDS011;24974;54.444;18.560;2023-11-25T01:33:54;3.15;;;1.48;;
28796;SDS011;24974;54.444;18.560;2023-11-25T01:36:26;2.45;;;1.30;;
28796;SDS011;24974;54.444;18.560;2023-11-25T01:38:57;4.30;;;1.50;;
28796;SDS011;24974;54.444;18.560;2023-11-25T01:41:28;5.18;;;1.55;;
28796;SDS011;24974;54.444;18.560;2023-11-25T01:43:59;3.03;;;1.30;;
28796;SDS011;24974;54.444;18.560;2023-11-25T01:46:37;3.15;;;1.10;;
28796;SDS011;24974;54.444;18.560;2023-11-25T01:49:09;4.25;;;1.05;;
28796;SDS011;24974;54.444;18.560;2023-11-25T01:51:42;1.88;;;1.10;;
28796;SDS011;24974;54.444;18.560;2023-11-25T01:54:16;4.90;;;1.58;;
28796;SDS011;24974;54.444;18.560;2023-11-25T01:56:52;5.30;;;1.30;;
28796;SDS011;24974;54.444;18.560;2023-11-25T01:59:26;3.10;;;1.20;;
28796;SDS011;24974;54.444;18.560;2023-11-25T02:01:58;2.60;;;1.10;;
28796;SDS011;24974;54.444;18.560;2023-11-25T02:04:32;2.92;;;1.00;;
28796;SDS011;24974;54.444;18.560;2023-11-25T02:07:03;7.55;;;1.40;;
28796;SDS011;24974;54.444;18.560;2023-11-25T02:09:35;2.45;;;1.20;;
28796;SDS011;24974;54.444;18.560;2023-11-25T02:12:06;3.75;;;0.90;;
28796;SDS011;24974;54.444;18.560;2023-11-25T02:14:38;1.45;;;1.00;;
28796;SDS011;24974;54.444;18.560;2023-11-25T02:17:09;3.53;;;0.88;;
28796;SDS011;24974;54.444;18.560;2023-11-25T02:19:43;2.05;;;0.90;;
28796;SDS011;24974;54.444;18.560;2023-11-25T02:22:14;1.60;;;0.90;;
28796;SDS011;24974;54.444;18.560;2023-11-25T02:24:46;2.65;;;1.10;;
28796;SDS011;24974;54.444;18.560;2023-11-25T02:27:18;2.53;;;1.00;;
28796;SDS011;24974;54.444;18.560;2023-11-25T02:29:50;3.70;;;1.35;;
28796;SDS011;24974;54.444;18.560;2023-11-25T02:32:22;3.50;;;1.05;;
28796;SDS011;24974;54.444;18.560;2023-11-25T02:34:53;4.57;;;1.05;;
28796;SDS011;24974;54.444;18.560;2023-11-25T02:37:25;1.67;;;1.10;;
28796;SDS011;24974;54.444;18.560;2023-11-25T02:39:56;3.80;;;1.27;;
28796;SDS011;24974;54.444;18.560;2023-11-25T02:42:27;2.42;;;1.98;;
28796;SDS011;24974;54.444;18.560;2023-11-25T02:44:58;2.55;;;1.10;;
28796;SDS011;24974;54.444;18.560;2023-11-25T02:47:29;3.78;;;1.10;;
28796;SDS011;24974;54.444;18.560;2023-11-25T02:50:00;5.95;;;1.80;;
28796;SDS011;24974;54.444;18.560;2023-11-25T02:52:31;4.43;;;1.10;;
28796;SDS011;24974;54.444;18.560;2023-11-25T02:55:02;2.22;;;1.23;;
28796;SDS011;24974;54.444;18.560;2023-11-25T02:57:33;4.57;;;0.90;;
28796;SDS011;24974;54.444;18.560;2023-11-25T03:00:04;3.58;;;1.17;;
28796;SDS011;24974;54.444;18.560;2023-11-25T03:02:41;1.02;;;0.93;;
28796;SDS011;24974;54.444;18.560;2023-11-25T03:05:12;1.85;;;0.80;;
28796;SDS011;24974;54.444;18.560;2023-11-25T03:07:43;1.15;;;0.60;;
28796;SDS011;24974;54.444;18.560;2023-11-25T03:10:15;0.70;;;0.70;;
28796;SDS011;24974;54.444;18.560;2023-11-25T03:12:47;0.60;;;0.60;;
28796;SDS011;24974;54.444;18.560;2023-11-25T03:15:18;1.90;;;0.65;;
28796;SDS011;24974;54.444;18.560;2023-11-25T03:17:49;0.75;;;0.60;;
28796;SDS011;24974;54.444;18.560;2023-11-25T03:20:20;0.77;;;0.70;;
28796;SDS011;24974;54.444;18.560;2023-11-25T03:22:51;1.88;;;0.77;;
28796;SDS011;24974;54.444;18.560;2023-11-25T03:25:22;1.50;;;0.90;;
28796;SDS011;24974;54.444;18.560;2023-11-25T03:27:55;1.17;;;0.70;;
28796;SDS011;24974;54.444;18.560;2023-11-25T03:30:27;2.15;;;0.70;;
28796;SDS011;24974;54.444;18.560;2023-11-25T03:32:59;0.80;;;0.80;;
28796;SDS011;24974;54.444;18.560;2023-11-25T03:35:30;1.30;;;1.00;;
28796;SDS011;24974;54.444;18.560;2023-11-25T03:38:02;0.85;;;0.70;;
28796;SDS011;24974;54.444;18.560;2023-11-25T03:40:33;1.20;;;0.70;;
28796;SDS011;24974;54.444;18.560;2023-11-25T03:43:05;0.80;;;0.70;;
28796;SDS011;24974;54.444;18.560;2023-11-25T03:45:36;1.00;;;0.80;;
28796;SDS011;24974;54.444;18.560;2023-11-25T03:48:07;2.03;;;0.80;;
28796;SDS011;24974;54.444;18.560;2023-11-25T03:50:38;2.85;;;0.77;;
28796;SDS011;24974;54.444;18.560;2023-11-25T03:53:09;2.05;;;0.77;;
28796;SDS011;24974;54.444;18.560;2023-11-25T03:55:40;1.58;;;0.88;;
28796;SDS011;24974;54.444;18.560;2023-11-25T03:58:11;0.68;;;0.68;;
28796;SDS011;24974;54.444;18.560;2023-11-25T04:00:42;0.55;;;0.55;;
28796;SDS011;24974;54.444;18.560;2023-11-25T04:03:13;0.90;;;0.70;;
28796;SDS011;24974;54.444;18.560;2023-11-25T04:05:44;1.20;;;1.02;;
28796;SDS011;24974;54.444;18.560;2023-11-25T04:08:16;0.68;;;0.68;;
28796;SDS011;24974;54.444;18.560;2023-11-25T04:10:46;0.60;;;0.60;;
28796;SDS011;24974;54.444;18.560;2023-11-25T04:13:17;1.83;;;0.80;;
28796;SDS011;24974;54.444;18.560;2023-11-25T04:15:48;1.42;;;0.80;;
28796;SDS011;24974;54.444;18.560;2023-11-25T04:18:19;1.30;;;0.70;;
28796;SDS011;24974;54.444;18.560;2023-11-25T04:20:50;1.45;;;0.80;;
28796;SDS011;24974;54.444;18.560;2023-11-25T04:23:21;2.97;;;1.10;;
28796;SDS011;24974;54.444;18.560;2023-11-25T04:25:52;6.55;;;1.10;;
28796;SDS011;24974;54.444;18.560;2023-11-25T04:28:24;2.92;;;1.20;;
28796;SDS011;24974;54.444;18.560;2023-11-25T04:30:55;2.80;;;1.30;;
28796;SDS011;24974;54.444;18.560;2023-11-25T04:33:26;4.85;;;1.92;;
28796;SDS011;24974;54.444;18.560;2023-11-25T04:35:57;4.82;;;1.33;;
28796;SDS011;24974;54.444;18.560;2023-11-25T04:38:28;4.28;;;1.40;;
28796;SDS011;24974;54.444;18.560;2023-11-25T04:40:59;1.80;;;0.95;;
28796;SDS011;24974;54.444;18.560;2023-11-25T04:43:30;3.95;;;1.20;;
28796;SDS011;24974;54.444;18.560;2023-11-25T04:46:00;4.13;;;1.50;;
28796;SDS011;24974;54.444;18.560;2023-11-25T04:48:35;5.90;;;1.40;;
28796;SDS011;24974;54.444;18.560;2023-11-25T04:51:05;4.43;;;1.30;;
28796;SDS011;24974;54.444;18.560;2023-11-25T04:53:36;3.72;;;0.90;;
28796;SDS011;24974;54.444;18.560;2023-11-25T04:56:08;0.90;;;0.90;;
28796;SDS011;24974;54.444;18.560;2023-11-25T04:58:39;4.20;;;1.10;;
28796;SDS011;24974;54.444;18.560;2023-11-25T05:01:10;0.77;;;0.77;;
28796;SDS011;24974;54.444;18.560;2023-11-25T05:03:41;4.10;;;1.25;;
28796;SDS011;24974;54.444;18.560;2023-11-25T05:06:12;1.65;;;1.02;;
28796;SDS011;24974;54.444;18.560;2023-11-25T05:08:43;5.07;;;1.40;;
28796;SDS011;24974;54.444;18.560;2023-11-25T05:11:15;3.33;;;1.20;;
28796;SDS011;24974;54.444;18.560;2023-11-25T05:13:46;3.90;;;1.65;;
28796;SDS011;24974;54.444;18.560;2023-11-25T05:16:17;5.03;;;1.80;;
28796;SDS011;24974;54.444;18.560;2023-11-25T05:18:50;4.10;;;1.10;;
28796;SDS011;24974;54.444;18.560;2023-11-25T05:21:20;3.47;;;1.38;;
28796;SDS011;24974;54.444;18.560;2023-11-25T05:23:51;2.65;;;1.08;;
28796;SDS011;24974;54.444;18.560;2023-11-25T05:26:23;3.67;;;1.08;;
28796;SDS011;24974;54.444;18.560;2023-11-25T05:28:54;2.22;;;1.27;;
28796;SDS011;24974;54.444;18.560;2023-11-25T05:31:25;1.30;;;0.80;;
28796;SDS011;24974;54.444;18.560;2023-11-25T05:33:56;2.97;;;1.13;;
28796;SDS011;24974;54.444;18.560;2023-11-25T05:36:27;2.42;;;1.05;;
28796;SDS011;24974;54.444;18.560;2023-11-25T05:38:58;2.80;;;1.10;;
28796;SDS011;24974;54.444;18.560;2023-11-25T05:41:36;5.10;;;1.50;;
28796;SDS011;24974;54.444;18.560;2023-11-25T05:44:08;1.75;;;1.10;;
28796;SDS011;24974;54.444;18.560;2023-11-25T05:46:40;2.80;;;1.45;;
28796;SDS011;24974;54.444;18.560;2023-11-25T05:49:11;6.07;;;1.40;;
28796;SDS011;24974;54.444;18.560;2023-11-25T05:51:42;9.68;;;4.15;;
28796;SDS011;24974;54.444;18.560;2023-11-25T05:54:13;7.68;;;1.92;;
28796;SDS011;24974;54.444;18.560;2023-11-25T05:56:44;4.70;;;1.52;;
28796;SDS011;24974;54.444;18.560;2023-11-25T05:59:16;2.42;;;1.52;;
28796;SDS011;24974;54.444;18.560;2023-11-25T06:01:47;3.20;;;1.73;;
28796;SDS011;24974;54.444;18.560;2023-11-25T06:04:17;2.40;;;1.77;;
28796;SDS011;24974;54.444;18.560;2023-11-25T06:06:48;4.82;;;1.88;;
28796;SDS011;24974;54.444;18.560;2023-11-25T06:09:20;2.58;;;1.20;;
28796;SDS011;24974;54.444;18.560;2023-11-25T06:11:51;2.03;;;1.27;;
28796;SDS011;24974;54.444;18.560;2023-11-25T06:14:21;3.33;;;1.58;;
28796;SDS011;24974;54.444;18.560;2023-11-25T06:16:52;7.55;;;2.30;;
28796;SDS011;24974;54.444;18.560;2023-11-25T06:19:27;10.20;;;6.72;;
28796;SDS011;24974;54.444;18.560;2023-11-25T06:22:00;3.30;;;1.80;;
28796;SDS011;24974;54.444;18.560;2023-11-25T06:24:31;7.13;;;4.43;;
28796;SDS011;24974;54.444;18.560;2023-11-25T06:27:02;6.97;;;2.90;;
28796;SDS011;24974;54.444;18.560;2023-11-25T06:29:33;4.63;;;1.85;;
28796;SDS011;24974;54.444;18.560;2023-11-25T06:32:04;4.32;;;1.35;;
28796;SDS011;24974;54.444;18.560;2023-11-25T06:34:35;7.60;;;1.90;;
28796;SDS011;24974;54.444;18.560;2023-11-25T06:37:06;4.18;;;1.50;;
28796;SDS011;24974;54.444;18.560;2023-11-25T06:39:37;6.03;;;2.10;;
28796;SDS011;24974;54.444;18.560;2023-11-25T06:42:08;6.68;;;2.47;;
28796;SDS011;24974;54.444;18.560;2023-11-25T06:44:40;6.28;;;2.60;;
28796;SDS011;24974;54.444;18.560;2023-11-25T06:47:12;6.15;;;3.65;;
28796;SDS011;24974;54.444;18.560;2023-11-25T06:49:44;12.98;;;4.65;;
28796;SDS011;24974;54.444;18.560;2023-11-25T06:52:15;10.27;;;3.92;;
28796;SDS011;24974;54.444;18.560;2023-11-25T06:54:46;11.00;;;3.50;;
28796;SDS011;24974;54.444;18.560;2023-11-25T06:57:17;9.15;;;3.58;;
28796;SDS011;24974;54.444;18.560;2023-11-25T06:59:49;7.22;;;2.72;;
28796;SDS011;24974;54.444;18.560;2023-11-25T07:02:20;3.95;;;1.33;;
28796;SDS011;24974;54.444;18.560;2023-11-25T07:04:51;3.83;;;1.55;;
28796;SDS011;24974;54.444;18.560;2023-11-25T07:07:22;4.00;;;1.83;;
28796;SDS011;24974;54.444;18.560;2023-11-25T07:09:53;3.65;;;1.48;;
28796;SDS011;24974;54.444;18.560;2023-11-25T07:12:24;10.18;;;1.50;;
28796;SDS011;24974;54.444;18.560;2023-11-25T07:14:55;6.63;;;1.63;;
28796;SDS011;24974;54.444;18.560;2023-11-25T07:17:25;3.00;;;1.52;;
28796;SDS011;24974;54.444;18.560;2023-11-25T07:19:56;3.45;;;1.50;;
28796;SDS011;24974;54.444;18.560;2023-11-25T07:22:27;5.05;;;1.60;;
28796;SDS011;24974;54.444;18.560;2023-11-25T07:24:58;5.53;;;1.60;;
28796;SDS011;24974;54.444;18.560;2023-11-25T07:27:29;5.22;;;1.98;;
28796;SDS011;24974;54.444;18.560;2023-11-25T07:30:00;5.93;;;2.13;;
28796;SDS011;24974;54.444;18.560;2023-11-25T07:32:31;5.68;;;1.55;;
28796;SDS011;24974;54.444;18.560;2023-11-25T07:35:03;2.35;;;1.65;;
28796;SDS011;24974;54.444;18.560;2023-11-25T07:37:38;2.67;;;1.40;;
28796;SDS011;24974;54.444;18.560;2023-11-25T07:40:09;4.25;;;1.50;;
28796;SDS011;24974;54.444;18.560;2023-11-25T07:42:43;3.58;;;1.50;;
28796;SDS011;24974;54.444;18.560;2023-11-25T07:45:18;4.25;;;2.78;;
28796;SDS011;24974;54.444;18.560;2023-11-25T07:47:49;7.25;;;2.72;;
28796;SDS011;24974;54.444;18.560;2023-11-25T07:50:20;5.15;;;2.67;;
28796;SDS011;24974;54.444;18.560;2023-11-25T07:52:52;5.28;;;1.83;;
28796;SDS011;24974;54.444;18.560;2023-11-25T07:55:23;2.90;;;1.55;;
28796;SDS011;24974;54.444;18.560;2023-11-25T07:57:54;4.28;;;1.63;;
28796;SDS011;24974;54.444;18.560;2023-11-25T08:00:25;2.00;;;1.25;;
28796;SDS011;24974;54.444;18.560;2023-11-25T08:02:56;9.10;;;1.70;;
28796;SDS011;24974;54.444;18.560;2023-11-25T08:05:27;3.75;;;1.40;;
28796;SDS011;24974;54.444;18.560;2023-11-25T08:07:59;5.45;;;1.60;;
28796;SDS011;24974;54.444;18.560;2023-11-25T08:10:29;4.88;;;1.65;;
28796;SDS011;24974;54.444;18.560;2023-11-25T08:13:04;8.23;;;1.73;;
28796;SDS011;24974;54.444;18.560;2023-11-25T08:15:35;5.50;;;1.98;;
28796;SDS011;24974;54.444;18.560;2023-11-25T08:18:06;3.90;;;1.83;;
28796;SDS011;24974;54.444;18.560;2023-11-25T08:20:37;6.10;;;2.50;;
28796;SDS011;24974;54.444;18.560;2023-11-25T08:23:10;5.60;;;2.78;;
28796;SDS011;24974;54.444;18.560;2023-11-25T08:25:41;7.03;;;2.60;;
28796;SDS011;24974;54.444;18.560;2023-11-25T08:28:12;5.07;;;2.10;;
28796;SDS011;24974;54.444;18.560;2023-11-25T08:30:42;5.63;;;2.55;;
28796;SDS011;24974;54.444;18.560;2023-11-25T08:33:13;5.53;;;2.55;;
28796;SDS011;24974;54.444;18.560;2023-11-25T08:35:44;5.80;;;2.10;;
28796;SDS011;24974;54.444;18.560;2023-11-25T08:38:16;6.25;;;2.20;;
28796;SDS011;24974;54.444;18.560;2023-11-25T08:40:46;6.63;;;2.10;;
28796;SDS011;24974;54.444;18.560;2023-11-25T08:43:18;4.57;;;2.60;;
28796;SDS011;24974;54.444;18.560;2023-11-25T08:45:49;6.15;;;2.42;;
28796;SDS011;24974;54.444;18.560;2023-11-25T08:48:20;4.95;;;2.15;;
28796;SDS011;24974;54.444;18.560;2023-11-25T08:50:52;6.95;;;3.05;;
28796;SDS011;24974;54.444;18.560;2023-11-25T08:53:23;9.65;;;4.05;;
28796;SDS011;24974;54.444;18.560;2023-11-25T08:55:54;11.57;;;4.45;;
28796;SDS011;24974;54.444;18.560;2023-11-25T08:58:26;10.05;;;4.35;;
28796;SDS011;24974;54.444;18.560;2023-11-25T09:00:57;6.25;;;3.13;;
28796;SDS011;24974;54.444;18.560;2023-11-25T09:03:27;11.90;;;3.33;;
28796;SDS011;24974;54.444;18.560;2023-11-25T09:05:59;6.95;;;3.03;;
28796;SDS011;24974;54.444;18.560;2023-11-25T09:08:30;6.40;;;2.97;;
28796;SDS011;24974;54.444;18.560;2023-11-25T09:11:01;11.32;;;3.08;;
28796;SDS011;24974;54.444;18.560;2023-11-25T09:13:32;7.60;;;2.50;;
28796;SDS011;24974;54.444;18.560;2023-11-25T09:16:03;8.60;;;2.92;;
28796;SDS011;24974;54.444;18.560;2023-11-25T09:18:35;5.43;;;2.80;;
28796;SDS011;24974;54.444;18.560;2023-11-25T09:21:07;8.65;;;2.72;;
28796;SDS011;24974;54.444;18.560;2023-11-25T09:23:38;6.60;;;2.72;;
28796;SDS011;24974;54.444;18.560;2023-11-25T09:26:08;6.75;;;2.60;;
28796;SDS011;24974;54.444;18.560;2023-11-25T09:28:39;7.10;;;2.55;;
28796;SDS011;24974;54.444;18.560;2023-11-25T09:31:10;5.82;;;2.67;;
28796;SDS011;24974;54.444;18.560;2023-11-25T09:33:41;7.50;;;2.50;;
28796;SDS011;24974;54.444;18.560;2023-11-25T09:36:12;5.03;;;2.45;;
28796;SDS011;24974;54.444;18.560;2023-11-25T09:38:43;5.93;;;2.33;;
28796;SDS011;24974;54.444;18.560;2023-11-25T09:41:14;6.22;;;2.65;;
28796;SDS011;24974;54.444;18.560;2023-11-25T09:43:45;6.70;;;2.88;;
28796;SDS011;24974;54.444;18.560;2023-11-25T09:46:17;5.63;;;2.63;;
28796;SDS011;24974;54.444;18.560;2023-11-25T09:48:48;8.00;;;3.20;;
28796;SDS011;24974;54.444;18.560;2023-11-25T09:51:20;11.02;;;2.88;;
28796;SDS011;24974;54.444;18.560;2023-11-25T09:53:56;5.60;;;2.90;;
28796;SDS011;24974;54.444;18.560;2023-11-25T09:56:27;4.70;;;2.13;;
28796;SDS011;24974;54.444;18.560;2023-11-25T09:58:59;4.10;;;1.92;;
28796;SDS011;24974;54.444;18.560;2023-11-25T10:01:30;5.38;;;2.50;;
28796;SDS011;24974;54.444;18.560;2023-11-25T10:04:02;8.98;;;3.00;;
28796;SDS011;24974;54.444;18.560;2023-11-25T10:06:37;13.95;;;2.88;;
28796;SDS011;24974;54.444;18.560;2023-11-25T10:09:08;16.13;;;4.22;;
28796;SDS011;24974;54.444;18.560;2023-11-25T10:11:41;20.00;;;4.65;;
28796;SDS011;24974;54.444;18.560;2023-11-25T10:14:14;10.98;;;3.72;;
28796;SDS011;24974;54.444;18.560;2023-11-25T10:16:48;16.80;;;4.25;;
28796;SDS011;24974;54.444;18.560;2023-11-25T10:19:19;16.65;;;5.03;;
28796;SDS011;24974;54.444;18.560;2023-11-25T10:21:51;22.48;;;7.05;;
28796;SDS011;24974;54.444;18.560;2023-11-25T10:24:22;27.45;;;8.98;;
28796;SDS011;24974;54.444;18.560;2023-11-25T10:26:53;14.68;;;4.47;;
28796;SDS011;24974;54.444;18.560;2023-11-25T10:29:26;10.27;;;3.83;;
28796;SDS011;24974;54.444;18.560;2023-11-25T10:31:59;14.32;;;4.07;;
28796;SDS011;24974;54.444;18.560;2023-11-25T10:34:29;9.45;;;2.80;;
28796;SDS011;24974;54.444;18.560;2023-11-25T10:37:01;6.85;;;2.30;;
28796;SDS011;24974;54.444;18.560;2023-11-25T10:39:32;13.25;;;3.05;;
28796;SDS011;24974;54.444;18.560;2023-11-25T10:42:05;10.20;;;3.08;;
28796;SDS011;24974;54.444;18.560;2023-11-25T10:44:39;12.05;;;4.57;;
28796;SDS011;24974;54.444;18.560;2023-11-25T10:47:27;14.63;;;5.55;;
28796;SDS011;24974;54.444;18.560;2023-11-25T10:50:02;7.22;;;2.60;;
28796;SDS011;24974;54.444;18.560;2023-11-25T10:52:34;6.53;;;2.30;;
28796;SDS011;24974;54.444;18.560;2023-11-25T10:55:09;9.07;;;3.33;;
28796;SDS011;24974;54.444;18.560;2023-11-25T10:57:40;9.05;;;2.65;;
28796;SDS011;24974;54.444;18.560;2023-11-25T11:00:11;10.20;;;4.07;;
28796;SDS011;24974;54.444;18.560;2023-11-25T11:02:44;10.70;;;4.85;;
28796;SDS011;24974;54.444;18.560;2023-11-25T11:05:22;12.38;;;4.55;;
28796;SDS011;24974;54.444;18.560;2023-11-25T11:08:03;13.65;;;5.18;;
28796;SDS011;24974;54.444;18.560;2023-11-25T11:10:47;6.32;;;3.00;;
28796;SDS011;24974;54.444;18.560;2023-11-25T11:13:29;8.73;;;3.63;;
28796;SDS011;24974;54.444;18.560;2023-11-25T11:16:10;5.75;;;2.72;;
28796;SDS011;24974;54.444;18.560;2023-11-25T11:18:48;8.85;;;3.15;;
28796;SDS011;24974;54.444;18.560;2023-11-25T11:21:22;6.28;;;2.95;;
28796;SDS011;24974;54.444;18.560;2023-11-25T11:24:01;13.18;;;4.72;;
28796;SDS011;24974;54.444;18.560;2023-11-25T11:26:35;6.82;;;2.95;;
28796;SDS011;24974;54.444;18.560;2023-11-25T11:34:35;7.22;;;3.13;;
28796;SDS011;24974;54.444;18.560;2023-11-25T11:37:06;7.82;;;2.92;;
28796;SDS011;24974;54.444;18.560;2023-11-25T11:39:40;6.20;;;2.97;;
28796;SDS011;24974;54.444;18.560;2023-11-25T11:47:54;6.22;;;2.75;;
28796;SDS011;24974;54.444;18.560;2023-11-25T11:50:27;8.00;;;3.05;;
28796;SDS011;24974;54.444;18.560;2023-11-25T11:58:23;4.15;;;2.53;;
28796;SDS011;24974;54.444;18.560;2023-11-25T12:03:31;6.07;;;2.97;;
28796;SDS011;24974;54.444;18.560;2023-11-25T12:06:03;3.17;;;1.80;;
28796;SDS011;24974;54.444;18.560;2023-11-25T12:08:35;3.83;;;1.67;;
28796;SDS011;24974;54.444;18.560;2023-11-25T12:11:06;5.13;;;2.03;;
28796;SDS011;24974;54.444;18.560;2023-11-25T12:13:37;5.70;;;2.20;;
28796;SDS011;24974;54.444;18.560;2023-11-25T12:16:08;6.63;;;3.28;;
28796;SDS011;24974;54.444;18.560;2023-11-25T12:18:39;7.00;;;2.83;;
28796;SDS011;24974;54.444;18.560;2023-11-25T12:21:10;6.03;;;2.22;;
28796;SDS011;24974;54.444;18.560;2023-11-25T12:23:41;5.28;;;2.53;;
28796;SDS011;24974;54.444;18.560;2023-11-25T12:26:12;6.13;;;2.45;;
28796;SDS011;24974;54.444;18.560;2023-11-25T12:28:43;6.15;;;2.65;;
28796;SDS011;24974;54.444;18.560;2023-11-25T12:31:15;5.25;;;2.20;;
28796;SDS011;24974;54.444;18.560;2023-11-25T12:33:46;6.20;;;2.58;;
28796;SDS011;24974;54.444;18.560;2023-11-25T12:36:16;8.10;;;2.47;;
28796;SDS011;24974;54.444;18.560;2023-11-25T12:38:47;9.00;;;4.28;;
28796;SDS011;24974;54.444;18.560;2023-11-25T12:41:20;6.10;;;2.42;;
28796;SDS011;24974;54.444;18.560;2023-11-25T12:44:03;4.22;;;2.00;;
28796;SDS011;24974;54.444;18.560;2023-11-25T12:46:41;4.55;;;1.90;;
28796;SDS011;24974;54.444;18.560;2023-11-25T12:49:21;4.70;;;2.28;;
28796;SDS011;24974;54.444;18.560;2023-11-25T12:51:52;7.05;;;2.55;;
28796;SDS011;24974;54.444;18.560;2023-11-25T12:54:23;5.35;;;2.45;;
28796;SDS011;24974;54.444;18.560;2023-11-25T12:56:54;4.57;;;2.30;;
28796;SDS011;24974;54.444;18.560;2023-11-25T12:59:27;4.78;;;2.10;;
28796;SDS011;24974;54.444;18.560;2023-11-25T13:02:06;4.05;;;2.58;;
28796;SDS011;24974;54.444;18.560;2023-11-25T13:04:42;6.50;;;2.80;;
28796;SDS011;24974;54.444;18.560;2023-11-25T13:10:03;6.72;;;2.15;;
28796;SDS011;24974;54.444;18.560;2023-11-25T13:12:34;6.93;;;2.13;;
28796;SDS011;24974;54.444;18.560;2023-11-25T13:15:07;6.32;;;2.40;;
28796;SDS011;24974;54.444;18.560;2023-11-25T13:17:39;8.55;;;3.00;;
28796;SDS011;24974;54.444;18.560;2023-11-25T13:20:10;6.32;;;3.42;;
28796;SDS011;24974;54.444;18.560;2023-11-25T13:22:42;5.18;;;2.75;;
28796;SDS011;24974;54.444;18.560;2023-11-25T13:25:12;6.20;;;2.08;;
28796;SDS011;24974;54.444;18.560;2023-11-25T13:27:43;4.82;;;3.00;;
28796;SDS011;24974;54.444;18.560;2023-11-25T13:30:14;6.25;;;2.47;;
28796;SDS011;24974;54.444;18.560;2023-11-25T13:32:46;5.68;;;3.08;;
28796;SDS011;24974;54.444;18.560;2023-11-25T13:35:17;11.10;;;4.85;;
28796;SDS011;24974;54.444;18.560;2023-11-25T13:37:47;5.80;;;2.55;;
28796;SDS011;24974;54.444;18.560;2023-11-25T13:40:18;4.47;;;2.28;;
28796;SDS011;24974;54.444;18.560;2023-11-25T13:42:50;5.35;;;2.40;;
28796;SDS011;24974;54.444;18.560;2023-11-25T13:45:20;7.25;;;2.90;;
28796;SDS011;24974;54.444;18.560;2023-11-25T13:47:51;7.55;;;3.58;;
28796;SDS011;24974;54.444;18.560;2023-11-25T13:50:23;6.03;;;2.38;;
28796;SDS011;24974;54.444;18.560;2023-11-25T13:52:55;5.32;;;2.47;;
28796;SDS011;24974;54.444;18.560;2023-11-25T13:55:26;7.03;;;2.63;;
28796;SDS011;24974;54.444;18.560;2023-11-25T13:58:00;5.68;;;2.60;;
28796;SDS011;24974;54.444;18.560;2023-11-25T14:00:32;8.57;;;3.08;;
28796;SDS011;24974;54.444;18.560;2023-11-25T14:03:03;8.55;;;2.70;;
28796;SDS011;24974;54.444;18.560;2023-11-25T14:05:38;7.70;;;3.28;;
28796;SDS011;24974;54.444;18.560;2023-11-25T14:08:12;9.45;;;3.53;;
28796;SDS011;24974;54.444;18.560;2023-11-25T14:10:46;7.43;;;3.42;;
28796;SDS011;24974;54.444;18.560;2023-11-25T14:13:17;8.40;;;3.67;;
28796;SDS011;24974;54.444;18.560;2023-11-25T14:15:49;12.65;;;5.60;;
28796;SDS011;24974;54.444;18.560;2023-11-25T14:18:19;15.23;;;6.70;;
28796;SDS011;24974;54.444;18.560;2023-11-25T14:20:50;9.98;;;4.32;;
28796;SDS011;24974;54.444;18.560;2023-11-25T14:23:21;8.98;;;3.97;;
28796;SDS011;24974;54.444;18.560;2023-11-25T14:25:53;8.00;;;3.67;;
28796;SDS011;24974;54.444;18.560;2023-11-25T14:28:24;13.23;;;4.38;;
28796;SDS011;24974;54.444;18.560;2023-11-25T14:30:55;11.38;;;3.63;;
28796;SDS011;24974;54.444;18.560;2023-11-25T14:33:26;8.38;;;3.15;;
28796;SDS011;24974;54.444;18.560;2023-11-25T14:35:56;6.75;;;3.22;;
28796;SDS011;24974;54.444;18.560;2023-11-25T14:38:27;10.98;;;3.10;;
28796;SDS011;24974;54.444;18.560;2023-11-25T14:40:58;12.98;;;4.07;;
28796;SDS011;24974;54.444;18.560;2023-11-25T14:43:30;14.57;;;4.00;;
28796;SDS011;24974;54.444;18.560;2023-11-25T14:46:01;8.63;;;3.28;;
28796;SDS011;24974;54.444;18.560;2023-11-25T14:48:32;13.40;;;5.68;;
28796;SDS011;24974;54.444;18.560;2023-11-25T14:51:03;29.25;;;11.68;;
28796;SDS011;24974;54.444;18.560;2023-11-25T14:53:34;47.05;;;17.02;;
28796;SDS011;24974;54.444;18.560;2023-11-25T14:56:08;37.47;;;14.60;;
28796;SDS011;24974;54.444;18.560;2023-11-25T14:58:38;22.33;;;8.13;;
28796;SDS011;24974;54.444;18.560;2023-11-25T15:01:09;14.32;;;6.13;;
28796;SDS011;24974;54.444;18.560;2023-11-25T15:03:40;10.13;;;4.88;;
28796;SDS011;24974;54.444;18.560;2023-11-25T15:06:13;7.30;;;3.35;;
28796;SDS011;24974;54.444;18.560;2023-11-25T15:08:43;9.98;;;3.40;;
28796;SDS011;24974;54.444;18.560;2023-11-25T15:11:14;9.38;;;3.08;;
28796;SDS011;24974;54.444;18.560;2023-11-25T15:13:45;13.60;;;3.65;;
28796;SDS011;24974;54.444;18.560;2023-11-25T15:16:16;8.07;;;2.75;;
28796;SDS011;24974;54.444;18.560;2023-11-25T15:18:47;8.52;;;3.00;;
28796;SDS011;24974;54.444;18.560;2023-11-25T15:21:18;7.40;;;3.05;;